Time;durP1;ratioP1;P1;durP2;ratioP2;P2;SDS_P1;SDS_P2;PMS_P1;PMS_P2;Temp;Humidity;BMP_temperature;BMP_pressure;BME280_temperature;BME280_humidity;BME280_pressure;Samples;Min_cycle;Max_cycle;Signal;HPM_P1;HPM_P2
2021/03/22 00:00:51;;;;;;;7.87;4.57;;;;;;;;;;5108418;28;20232;-79
2021/03/22 00:03:21;;;;;;;7.30;4.63;;;;;;;;;;5109077;28;20225;-78
2021/03/22 00:05:50;;;;;;;8.70;4.67;;;;;;;;;;5110484;27;20614;-78
2021/03/22 00:08:19;;;;;;;6.17;4.40;;;;;;;;;;5077162;28;20233;-78
2021/03/22 00:10:48;;;;;;;8.87;4.40;;;;;;;;;;5103978;27;20228;-78
2021/03/22 00:13:17;;;;;;;8.27;4.63;;;;;;;;;;5099340;28;20225;-79
2021/03/22 00:15:46;;;;;;;6.07;3.87;;;;;;;;;;5108246;27;20604;-79
2021/03/22 00:18:15;;;;;;;6.17;4.57;;;;;;;;;;5111282;28;20222;-78
2021/03/22 00:20:43;;;;;;;6.77;4.20;;;;;;;;;;5108069;28;20253;-78
2021/03/22 00:23:12;;;;;;;8.80;4.73;;;;;;;;;;5086074;28;20225;-79
2021/03/22 00:25:39;;;;;;;7.60;4.50;;;;;;;;;;5103972;28;20229;-79
2021/03/22 00:28:13;;;;;;;8.47;4.97;;;;;;;;;;5082145;27;20222;-78
2021/03/22 00:30:43;;;;;;;6.83;4.73;;;;;;;;;;5124009;27;20210;-79
2021/03/22 00:33:13;;;;;;;8.00;5.40;;;;;;;;;;5119065;27;20239;-78
2021/03/22 00:35:41;;;;;;;8.20;4.23;;;;;;;;;;5099807;27;20240;-79
2021/03/22 00:38:09;;;;;;;5.87;4.13;;;;;;;;;;5102945;27;20239;-78
2021/03/22 00:40:39;;;;;;;6.20;4.33;;;;;;;;;;5094505;28;20707;-79
2021/03/22 00:43:07;;;;;;;6.77;4.57;;;;;;;;;;5147050;27;20225;-80
2021/03/22 00:45:52;;;;;;;6.70;4.10;;;;;;;;;;5131600;27;20217;-79
2021/03/22 00:48:20;;;;;;;6.10;4.27;;;;;;;;;;5114878;28;20233;-81
2021/03/22 00:50:48;;;;;;;6.10;4.37;;;;;;;;;;5113882;27;20226;-80
2021/03/22 00:53:17;;;;;;;8.60;4.67;;;;;;;;;;5094596;27;20226;-80
2021/03/22 00:55:45;;;;;;;6.13;4.30;;;;;;;;;;5130519;27;20236;-79
2021/03/22 00:58:14;;;;;;;7.57;4.30;;;;;;;;;;5082417;28;20205;-78
2021/03/22 01:00:43;;;;;;;5.53;4.50;;;;;;;;;;5117811;27;20234;-80
2021/03/22 01:03:14;;;;;;;5.77;4.20;;;;;;;;;;5089288;28;20222;-78
2021/03/22 01:05:42;;;;;;;8.87;5.00;;;;;;;;;;5086343;27;20222;-78
2021/03/22 01:08:10;;;;;;;7.30;4.57;;;;;;;;;;5092640;28;20229;-79
2021/03/22 01:10:40;;;;;;;6.63;4.37;;;;;;;;;;5089233;28;20707;-79
2021/03/22 01:13:15;;;;;;;6.23;4.93;;;;;;;;;;5092948;28;20229;-79
2021/03/22 01:15:43;;;;;;;6.50;4.40;;;;;;;;;;5106654;27;20226;-79
2021/03/22 01:18:12;;;;;;;5.00;3.97;;;;;;;;;;5116446;27;20220;-79
2021/03/22 01:20:43;;;;;;;8.03;4.33;;;;;;;;;;5104758;28;20530;-79
2021/03/22 01:23:11;;;;;;;6.60;4.60;;;;;;;;;;5110971;28;20232;-80
2021/03/22 01:25:40;;;;;;;6.37;4.40;;;;;;;;;;5114878;27;20230;-79
2021/03/22 01:28:09;;;;;;;6.30;4.23;;;;;;;;;;5107243;27;20232;-79
2021/03/22 01:30:40;;;;;;;8.20;5.00;;;;;;;;;;5108527;27;20229;-80
2021/03/22 01:33:17;;;;;;;8.87;4.60;;;;;;;;;;5101366;28;20225;-79
2021/03/22 01:35:45;;;;;;;8.27;4.90;;;;;;;;;;5115836;27;20232;-79
2021/03/22 01:38:26;;;;;;;10.57;4.13;;;;;;;;;;5093215;27;20220;-79
2021/03/22 01:41:03;;;;;;;5.33;4.13;;;;;;;;;;5099705;27;20237;-79
2021/03/22 01:44:21;;;;;;;7.47;4.70;;;;;;;;;;5115738;27;20715;-79
2021/03/22 01:46:53;;;;;;;7.37;4.20;;;;;;;;;;5033202;28;20242;-79
2021/03/22 01:49:25;;;;;;;6.83;4.50;;;;;;;;;;5072813;28;20597;-79
2021/03/22 01:51:55;;;;;;;6.63;4.20;;;;;;;;;;5095469;28;20237;-78
2021/03/22 01:54:23;;;;;;;7.23;4.70;;;;;;;;;;5117886;27;20216;-79
2021/03/22 01:56:52;;;;;;;6.67;4.47;;;;;;;;;;5096446;27;20241;-79
2021/03/22 01:59:27;;;;;;;8.27;4.67;;;;;;;;;;5108518;28;20697;-79
2021/03/22 02:01:59;;;;;;;6.23;4.50;;;;;;;;;;5128633;27;20207;-81
2021/03/22 02:04:29;;;;;;;7.63;4.73;;;;;;;;;;5108072;28;20244;-80
2021/03/22 02:06:57;;;;;;;7.30;4.83;;;;;;;;;;5131411;27;20237;-79
2021/03/22 02:09:25;;;;;;;8.30;5.17;;;;;;;;;;5104754;28;20226;-79
2021/03/22 02:11:53;;;;;;;7.23;4.80;;;;;;;;;;5108108;28;20236;-79
2021/03/22 02:14:21;;;;;;;9.83;5.20;;;;;;;;;;5094778;27;20694;-79
2021/03/22 02:17:09;;;;;;;7.07;5.07;;;;;;;;;;5092987;27;20229;-79
2021/03/22 02:20:11;;;;;;;8.53;5.97;;;;;;;;;;5078290;28;20225;-79
2021/03/22 02:23:02;;;;;;;7.93;6.10;;;;;;;;;;5098785;28;20232;-79
2021/03/22 02:25:33;;;;;;;7.47;6.13;;;;;;;;;;5096599;28;20233;-79
2021/03/22 02:28:15;;;;;;;8.53;6.13;;;;;;;;;;5085403;28;20230;-79
2021/03/22 02:31:06;;;;;;;11.93;6.50;;;;;;;;;;5100109;27;20228;-79
2021/03/22 02:34:25;;;;;;;8.70;7.07;;;;;;;;;;5103688;28;20228;-78
2021/03/22 02:37:04;;;;;;;8.93;6.53;;;;;;;;;;5088020;28;20248;-78
2021/03/22 02:39:36;;;;;;;9.53;6.47;;;;;;;;;;5112045;28;20219;-79
2021/03/22 02:42:07;;;;;;;10.57;6.87;;;;;;;;;;5102141;28;20221;-79
2021/03/22 02:44:36;;;;;;;11.20;6.83;;;;;;;;;;5103018;28;20232;-78
2021/03/22 02:47:27;;;;;;;9.57;7.10;;;;;;;;;;5083137;28;20224;-78
2021/03/22 02:49:59;;;;;;;8.77;6.23;;;;;;;;;;5082147;28;20235;-78
2021/03/22 02:52:40;;;;;;;8.60;6.20;;;;;;;;;;5088701;28;20752;-79
2021/03/22 02:55:11;;;;;;;8.87;6.67;;;;;;;;;;5081327;28;20231;-81
2021/03/22 02:57:42;;;;;;;8.93;6.77;;;;;;;;;;5121119;27;20228;-79
2021/03/22 03:00:15;;;;;;;8.80;6.77;;;;;;;;;;5123558;28;20224;-79
2021/03/22 03:02:43;;;;;;;10.00;6.40;;;;;;;;;;5097681;28;20658;-79
2021/03/22 03:05:15;;;;;;;9.70;6.87;;;;;;;;;;5095866;27;20221;-78
2021/03/22 03:07:43;;;;;;;8.90;6.57;;;;;;;;;;5089980;27;20225;-79
2021/03/22 03:10:14;;;;;;;11.37;6.87;;;;;;;;;;5100198;27;20722;-78
2021/03/22 03:12:43;;;;;;;8.07;6.63;;;;;;;;;;5112446;27;20220;-79
2021/03/22 03:15:13;;;;;;;10.57;6.60;;;;;;;;;;5118402;27;20225;-79
2021/03/22 03:17:48;;;;;;;8.47;6.33;;;;;;;;;;5127356;27;20225;-79
2021/03/22 03:20:19;;;;;;;7.87;6.77;;;;;;;;;;5112433;27;20215;-78
2021/03/22 03:22:47;;;;;;;9.37;6.73;;;;;;;;;;5135521;27;20212;-80
2021/03/22 03:25:16;;;;;;;9.13;6.40;;;;;;;;;;5106502;28;20216;-79
2021/03/22 03:27:43;;;;;;;10.27;6.80;;;;;;;;;;5120628;27;20234;-80
2021/03/22 03:30:16;;;;;;;8.93;6.40;;;;;;;;;;5108646;27;20234;-79
2021/03/22 03:32:44;;;;;;;9.47;6.60;;;;;;;;;;5095711;27;20232;-79
2021/03/22 03:35:14;;;;;;;10.50;7.00;;;;;;;;;;5077509;27;20221;-79
2021/03/22 03:37:43;;;;;;;11.00;7.33;;;;;;;;;;5098640;27;20233;-79
2021/03/22 03:40:14;;;;;;;12.33;7.37;;;;;;;;;;5085890;28;20229;-79
2021/03/22 03:42:42;;;;;;;10.93;7.13;;;;;;;;;;5100837;27;20226;-80
2021/03/22 03:45:13;;;;;;;11.33;6.93;;;;;;;;;;5081764;28;20229;-78
2021/03/22 03:47:41;;;;;;;9.07;6.90;;;;;;;;;;5081394;27;20598;-80
2021/03/22 03:50:12;;;;;;;8.27;6.27;;;;;;;;;;5100966;27;20227;-79
2021/03/22 03:52:40;;;;;;;8.57;6.20;;;;;;;;;;5075927;28;20226;-80
2021/03/22 03:55:09;;;;;;;8.30;6.30;;;;;;;;;;5094115;27;20228;-78
2021/03/22 03:57:37;;;;;;;8.40;6.57;;;;;;;;;;5119180;27;20229;-79
2021/03/22 04:00:08;;;;;;;10.07;6.30;;;;;;;;;;5080898;27;20601;-78
2021/03/22 04:02:41;;;;;;;7.43;5.70;;;;;;;;;;5102177;27;20607;-78
2021/03/22 04:05:11;;;;;;;7.00;5.37;;;;;;;;;;5095979;27;20736;-78
2021/03/22 04:07:38;;;;;;;8.57;5.23;;;;;;;;;;5072481;28;20228;-78
2021/03/22 04:10:06;;;;;;;9.37;6.10;;;;;;;;;;5081321;28;20235;-79
2021/03/22 04:12:35;;;;;;;7.77;5.43;;;;;;;;;;5095762;27;20999;-78
2021/03/22 04:15:04;;;;;;;10.83;5.87;;;;;;;;;;5104662;27;20221;-80
2021/03/22 04:17:32;;;;;;;9.90;5.57;;;;;;;;;;5114285;27;20232;-79
2021/03/22 04:20:00;;;;;;;8.00;5.60;;;;;;;;;;5100530;27;20510;-79
2021/03/22 04:22:27;;;;;;;8.97;5.80;;;;;;;;;;5081745;28;20674;-78
2021/03/22 04:24:55;;;;;;;8.07;5.77;;;;;;;;;;5099608;27;20224;-78
2021/03/22 04:27:22;;;;;;;9.77;5.73;;;;;;;;;;5086321;28;20225;-79
2021/03/22 04:29:51;;;;;;;9.00;5.57;;;;;;;;;;5091646;27;20583;-78
2021/03/22 04:32:19;;;;;;;9.63;6.33;;;;;;;;;;5103051;27;20638;-78
2021/03/22 04:34:46;;;;;;;10.10;5.90;;;;;;;;;;5102276;27;20775;-78
2021/03/22 04:37:14;;;;;;;8.73;4.87;;;;;;;;;;5078015;28;20233;-78
2021/03/22 04:39:42;;;;;;;13.67;6.20;;;;;;;;;;5098854;27;20236;-79
2021/03/22 04:42:10;;;;;;;8.90;6.47;;;;;;;;;;5094749;27;20234;-79
2021/03/22 04:44:38;;;;;;;11.37;5.87;;;;;;;;;;5096907;27;20600;-79
2021/03/22 04:47:07;;;;;;;9.23;5.80;;;;;;;;;;5106335;27;20225;-79
2021/03/22 04:49:35;;;;;;;10.43;6.17;;;;;;;;;;5100971;27;20613;-78
2021/03/22 04:52:05;;;;;;;9.63;5.70;;;;;;;;;;5085025;27;20237;-78
2021/03/22 04:54:32;;;;;;;13.50;6.17;;;;;;;;;;5097266;27;20225;-78
2021/03/22 04:57:10;;;;;;;8.97;5.63;;;;;;;;;;5100529;27;20234;-78
2021/03/22 04:59:38;;;;;;;8.63;6.17;;;;;;;;;;5103496;27;20236;-79
2021/03/22 05:02:07;;;;;;;9.20;5.63;;;;;;;;;;5084912;27;20241;-78
2021/03/22 05:04:54;;;;;;;9.27;5.53;;;;;;;;;;5097837;27;20240;-78
2021/03/22 05:07:23;;;;;;;9.93;6.40;;;;;;;;;;5103843;27;20232;-78
2021/03/22 05:09:51;;;;;;;8.33;5.93;;;;;;;;;;5136909;27;20234;-78
2021/03/22 05:12:19;;;;;;;11.33;5.90;;;;;;;;;;5105638;27;20233;-78
2021/03/22 05:14:46;;;;;;;10.50;6.67;;;;;;;;;;5105212;27;20245;-79
2021/03/22 05:17:15;;;;;;;8.30;5.80;;;;;;;;;;5111753;27;20228;-79
2021/03/22 05:19:43;;;;;;;9.50;5.60;;;;;;;;;;5097432;27;20710;-80
2021/03/22 05:22:11;;;;;;;11.87;5.50;;;;;;;;;;5125552;27;20232;-79
2021/03/22 05:24:38;;;;;;;8.30;5.80;;;;;;;;;;5115376;27;20228;-80
2021/03/22 05:27:07;;;;;;;7.83;5.37;;;;;;;;;;5112538;27;20235;-79
2021/03/22 05:29:34;;;;;;;12.63;6.70;;;;;;;;;;5092749;27;20233;-79
2021/03/22 05:32:02;;;;;;;9.83;6.33;;;;;;;;;;5110089;27;20231;-79
2021/03/22 05:34:31;;;;;;;10.30;6.83;;;;;;;;;;5087874;28;20230;-79
2021/03/22 05:36:58;;;;;;;10.33;6.67;;;;;;;;;;5097022;27;20233;-79
2021/03/22 05:39:26;;;;;;;14.63;6.90;;;;;;;;;;5109270;27;20260;-79
2021/03/22 05:42:03;;;;;;;10.93;6.37;;;;;;;;;;5102287;27;20228;-79
2021/03/22 05:44:42;;;;;;;12.90;6.93;;;;;;;;;;5084947;28;20218;-78
2021/03/22 05:47:20;;;;;;;12.13;6.67;;;;;;;;;;5102945;28;20229;-79
2021/03/22 05:50:04;;;;;;;15.00;7.00;;;;;;;;;;5108635;27;20279;-79
2021/03/22 05:52:52;;;;;;;10.20;6.33;;;;;;;;;;5100753;28;20253;-79
2021/03/22 05:55:53;;;;;;;12.80;6.60;;;;;;;;;;5063509;28;20608;-79
2021/03/22 05:58:46;;;;;;;14.37;6.67;;;;;;;;;;5072900;28;20230;-79
2021/03/22 06:01:31;;;;;;;13.63;7.03;;;;;;;;;;5081400;28;20624;-79
2021/03/22 06:04:03;;;;;;;11.10;5.87;;;;;;;;;;5095156;27;20222;-78
2021/03/22 06:06:36;;;;;;;9.80;6.27;;;;;;;;;;5089715;27;20222;-78
2021/03/22 06:09:12;;;;;;;9.23;6.03;;;;;;;;;;5110352;27;20232;-79
2021/03/22 06:11:50;;;;;;;13.80;7.27;;;;;;;;;;5102975;27;20213;-81
2021/03/22 06:14:23;;;;;;;11.70;6.73;;;;;;;;;;5117315;27;20205;-80
2021/03/22 06:16:59;;;;;;;12.53;6.90;;;;;;;;;;5091111;27;20732;-78
2021/03/22 06:19:42;;;;;;;13.80;7.60;;;;;;;;;;5107204;27;20601;-78
2021/03/22 06:22:19;;;;;;;13.60;7.37;;;;;;;;;;5110757;27;20232;-79
2021/03/22 06:24:48;;;;;;;15.10;7.00;;;;;;;;;;5056391;27;20228;-79
2021/03/22 06:27:16;;;;;;;11.17;7.03;;;;;;;;;;5086903;28;20749;-79
2021/03/22 06:29:45;;;;;;;16.13;7.97;;;;;;;;;;5080420;27;20237;-79
2021/03/22 06:32:16;;;;;;;11.67;7.03;;;;;;;;;;5072975;28;20604;-78
2021/03/22 06:34:55;;;;;;;15.60;7.73;;;;;;;;;;5064102;28;20227;-78
2021/03/22 06:37:26;;;;;;;15.60;7.40;;;;;;;;;;5081959;28;20233;-78
2021/03/22 06:40:01;;;;;;;15.70;7.77;;;;;;;;;;5083572;28;20233;-79
2021/03/22 06:42:29;;;;;;;13.33;8.00;;;;;;;;;;5071263;28;20225;-79
2021/03/22 06:44:57;;;;;;;17.00;7.93;;;;;;;;;;5095920;27;20225;-79
2021/03/22 06:47:28;;;;;;;15.40;8.17;;;;;;;;;;5089746;28;20639;-79
2021/03/22 06:50:15;;;;;;;14.20;8.07;;;;;;;;;;5103792;27;20221;-79
2021/03/22 06:52:47;;;;;;;19.63;8.40;;;;;;;;;;5099813;27;20255;-79
2021/03/22 06:55:28;;;;;;;17.73;8.63;;;;;;;;;;5101819;27;20217;-79
2021/03/22 06:57:56;;;;;;;12.33;7.93;;;;;;;;;;5104431;27;20228;-79
2021/03/22 07:00:25;;;;;;;17.27;8.30;;;;;;;;;;5102417;27;20237;-79
2021/03/22 07:02:54;;;;;;;17.00;8.83;;;;;;;;;;5092599;27;20626;-82
2021/03/22 07:05:32;;;;;;;16.33;9.30;;;;;;;;;;5099120;27;20221;-80
2021/03/22 07:08:05;;;;;;;25.07;8.67;;;;;;;;;;5108267;27;20905;-80
2021/03/22 07:10:37;;;;;;;14.73;8.50;;;;;;;;;;5099175;27;20248;-81
2021/03/22 07:13:07;;;;;;;18.97;9.07;;;;;;;;;;5102328;27;20230;-82
2021/03/22 07:15:37;;;;;;;17.93;8.83;;;;;;;;;;5093671;27;20225;-79
2021/03/22 07:18:16;;;;;;;16.97;8.77;;;;;;;;;;5094717;27;21134;-81
2021/03/22 07:21:03;;;;;;;15.50;8.30;;;;;;;;;;5107170;27;20221;-79
2021/03/22 07:23:58;;;;;;;21.87;7.93;;;;;;;;;;5078668;28;20241;-80
2021/03/22 07:26:37;;;;;;;19.90;8.80;;;;;;;;;;5099112;27;20236;-80
2021/03/22 07:29:24;;;;;;;20.77;9.20;;;;;;;;;;5073171;27;20225;-80
2021/03/22 07:31:59;;;;;;;23.53;8.67;;;;;;;;;;5070932;28;20312;-80
2021/03/22 07:34:38;;;;;;;17.97;8.13;;;;;;;;;;5118769;27;20223;-85
2021/03/22 07:37:17;;;;;;;27.37;9.83;;;;;;;;;;5116825;27;20218;-84
2021/03/22 07:39:48;;;;;;;21.93;8.27;;;;;;;;;;5109476;27;20217;-87
2021/03/22 07:42:42;;;;;;;20.13;9.43;;;;;;;;;;5108079;28;20212;-87
2021/03/22 07:45:22;;;;;;;19.57;8.00;;;;;;;;;;5070635;28;20236;-84
2021/03/22 07:48:08;;;;;;;17.10;8.30;;;;;;;;;;5009960;27;22045;-84
2021/03/22 07:50:40;;;;;;;21.57;8.13;;;;;;;;;;5008715;28;20233;-83
2021/03/22 07:53:12;;;;;;;18.00;8.60;;;;;;;;;;5000117;28;20914;-87
2021/03/22 07:55:49;;;;;;;18.37;7.83;;;;;;;;;;4971994;27;20236;-86
2021/03/22 07:59:00;;;;;;;23.20;8.20;;;;;;;;;;4923633;28;20232;-85
2021/03/22 08:01:40;;;;;;;24.83;9.70;;;;;;;;;;4929431;27;20284;-83
2021/03/22 08:04:40;;;;;;;20.03;8.63;;;;;;;;;;4951943;27;20333;-84
2021/03/22 08:07:18;;;;;;;19.73;7.23;;;;;;;;;;4929874;27;20239;-84
2021/03/22 08:09:57;;;;;;;18.70;8.03;;;;;;;;;;4911309;27;21439;-84
2021/03/22 08:12:34;;;;;;;19.77;7.97;;;;;;;;;;4931824;27;20268;-82
2021/03/22 08:15:15;;;;;;;20.93;8.20;;;;;;;;;;4994914;27;20244;-83
2021/03/22 08:17:52;;;;;;;13.60;7.83;;;;;;;;;;4961533;27;20567;-87
2021/03/22 08:20:22;;;;;;;25.63;7.97;;;;;;;;;;4965520;27;21254;-83
2021/03/22 08:22:55;;;;;;;22.40;8.50;;;;;;;;;;4950222;27;24367;-81
2021/03/22 08:25:29;;;;;;;16.90;7.40;;;;;;;;;;4944149;28;20682;-87
2021/03/22 08:28:05;;;;;;;17.97;8.30;;;;;;;;;;4958810;27;20895;-81
2021/03/22 08:30:36;;;;;;;20.80;7.60;;;;;;;;;;4984402;27;20598;-84
2021/03/22 08:33:14;;;;;;;19.23;8.60;;;;;;;;;;4933008;27;20971;-84
2021/03/22 08:35:49;;;;;;;18.60;7.33;;;;;;;;;;4933502;27;20516;-83
2021/03/22 08:38:25;;;;;;;21.07;7.63;;;;;;;;;;4903642;28;21443;-81
2021/03/22 08:40:54;;;;;;;26.33;8.60;;;;;;;;;;4915950;27;20480;-82
2021/03/22 08:43:32;;;;;;;17.63;7.13;;;;;;;;;;4915176;28;21473;-84
2021/03/22 08:46:19;;;;;;;17.63;7.67;;;;;;;;;;4932925;27;20260;-81
2021/03/22 08:48:47;;;;;;;22.93;7.87;;;;;;;;;;4924209;27;20264;-81
2021/03/22 08:51:19;;;;;;;17.03;7.60;;;;;;;;;;4933147;27;20263;-82
2021/03/22 08:53:47;;;;;;;24.93;8.00;;;;;;;;;;4932545;27;20298;-84
2021/03/22 08:56:27;;;;;;;19.90;7.10;;;;;;;;;;4907485;28;20356;-81
2021/03/22 08:59:00;;;;;;;23.30;6.87;;;;;;;;;;4891263;27;20351;-80
2021/03/22 09:01:35;;;;;;;20.67;7.37;;;;;;;;;;4926271;27;23902;-82
2021/03/22 09:04:23;;;;;;;19.40;8.30;;;;;;;;;;4934346;27;20251;-82
2021/03/22 09:07:31;;;;;;;19.93;7.23;;;;;;;;;;4950951;27;21863;-82
2021/03/22 09:10:28;;;;;;;18.27;7.80;;;;;;;;;;4901345;27;20259;-82
2021/03/22 09:13:18;;;;;;;19.43;7.37;;;;;;;;;;4937226;27;21056;-83
2021/03/22 09:16:03;;;;;;;15.90;6.90;;;;;;;;;;4925178;27;20369;-82
2021/03/22 09:18:32;;;;;;;22.40;8.73;;;;;;;;;;4942407;27;21071;-84
2021/03/22 09:21:11;;;;;;;21.17;7.10;;;;;;;;;;4985610;27;20255;-84
2021/03/22 09:23:43;;;;;;;23.37;7.50;;;;;;;;;;4989351;27;20309;-81
2021/03/22 09:26:11;;;;;;;24.60;7.53;;;;;;;;;;4985538;27;21513;-83
2021/03/22 09:28:48;;;;;;;24.63;7.03;;;;;;;;;;5001921;27;21024;-83
2021/03/22 09:31:41;;;;;;;17.77;7.23;;;;;;;;;;4946651;27;20826;-83
2021/03/22 09:34:45;;;;;;;24.90;8.63;;;;;;;;;;4928532;27;20352;-87
2021/03/22 09:37:49;;;;;;;23.60;6.80;;;;;;;;;;4926230;27;20348;-81
2021/03/22 09:40:47;;;;;;;19.37;6.40;;;;;;;;;;4903872;28;21195;-80
2021/03/22 09:43:35;;;;;;;16.53;6.90;;;;;;;;;;4961428;27;20236;-82
2021/03/22 09:46:34;;;;;;;21.97;6.87;;;;;;;;;;4943151;27;20939;-88
2021/03/22 09:49:32;;;;;;;26.43;6.97;;;;;;;;;;5000948;27;20240;-82
2021/03/22 09:52:16;;;;;;;17.07;6.47;;;;;;;;;;4937692;27;21099;-84
2021/03/22 09:54:44;;;;;;;16.13;5.37;;;;;;;;;;4907106;27;20773;-82
2021/03/22 09:57:41;;;;;;;11.77;5.57;;;;;;;;;;4904184;27;21014;-81
2021/03/22 10:00:55;;;;;;;11.60;5.00;;;;;;;;;;4904336;27;21912;-80
2021/03/22 10:04:04;;;;;;;14.50;5.03;;;;;;;;;;4883524;28;20441;-81
2021/03/22 10:06:52;;;;;;;15.57;5.70;;;;;;;;;;4896895;27;20280;-83
2021/03/22 10:09:24;;;;;;;14.43;5.20;;;;;;;;;;4891222;27;20918;-83
2021/03/22 10:11:53;;;;;;;17.17;5.87;;;;;;;;;;4891546;27;20232;-83
2021/03/22 10:14:29;;;;;;;18.20;4.87;;;;;;;;;;4880506;27;21061;-83
2021/03/22 10:16:57;;;;;;;16.90;4.80;;;;;;;;;;4877359;27;21292;-81
2021/03/22 10:19:28;;;;;;;14.57;4.83;;;;;;;;;;4883772;28;20784;-82
2021/03/22 10:21:58;;;;;;;14.90;4.50;;;;;;;;;;4883291;28;20252;-82
2021/03/22 10:24:49;;;;;;;15.47;4.17;;;;;;;;;;4880416;27;21140;-80
2021/03/22 10:27:25;;;;;;;11.70;4.23;;;;;;;;;;4891462;27;20350;-80
2021/03/22 10:30:14;;;;;;;14.83;4.70;;;;;;;;;;4877036;27;20343;-81
2021/03/22 10:32:49;;;;;;;11.50;5.10;;;;;;;;;;4889198;27;24726;-83
2021/03/22 10:35:19;;;;;;;14.23;5.33;;;;;;;;;;4878228;28;20226;-83
2021/03/22 10:37:50;;;;;;;16.80;5.30;;;;;;;;;;4869048;27;20968;-81
2021/03/22 10:40:24;;;;;;;14.83;4.53;;;;;;;;;;4890541;28;21749;-83
2021/03/22 10:42:55;;;;;;;15.87;5.10;;;;;;;;;;4865728;27;20753;-82
2021/03/22 10:45:36;;;;;;;17.33;4.97;;;;;;;;;;4890170;27;20236;-81
2021/03/22 10:48:35;;;;;;;12.53;4.80;;;;;;;;;;4896509;27;20901;-81
2021/03/22 10:51:13;;;;;;;14.33;4.97;;;;;;;;;;4788508;28;21448;-83
2021/03/22 10:53:57;;;;;;;15.40;5.60;;;;;;;;;;4861796;27;20391;-83
2021/03/22 10:56:32;;;;;;;15.07;4.93;;;;;;;;;;4891582;27;20251;-83
2021/03/22 10:59:04;;;;;;;12.17;4.77;;;;;;;;;;4899332;27;20939;-82
2021/03/22 11:01:37;;;;;;;17.13;5.17;;;;;;;;;;4887249;27;20293;-84
2021/03/22 11:04:13;;;;;;;18.77;5.53;;;;;;;;;;4896671;27;20431;-82
2021/03/22 11:06:41;;;;;;;18.93;6.03;;;;;;;;;;4900640;27;20354;-81
2021/03/22 11:09:18;;;;;;;13.27;4.80;;;;;;;;;;4885629;27;21190;-86
2021/03/22 11:11:45;;;;;;;18.50;6.40;;;;;;;;;;4883532;27;21109;-82
2021/03/22 11:14:17;;;;;;;15.77;5.33;;;;;;;;;;4895020;28;20361;-83
2021/03/22 11:16:45;;;;;;;15.13;4.93;;;;;;;;;;4913420;27;20680;-83
2021/03/22 11:19:24;;;;;;;11.47;4.60;;;;;;;;;;4958036;27;20285;-82
2021/03/22 11:21:53;;;;;;;17.03;5.70;;;;;;;;;;5071599;28;20217;-80
2021/03/22 11:24:38;;;;;;;10.90;4.30;;;;;;;;;;5100401;27;20240;-81
2021/03/22 11:27:08;;;;;;;15.27;4.77;;;;;;;;;;5087515;27;20220;-81
2021/03/22 11:29:48;;;;;;;13.00;4.10;;;;;;;;;;5091896;28;20379;-81
2021/03/22 11:32:20;;;;;;;18.77;4.80;;;;;;;;;;5109842;27;20232;-81
2021/03/22 11:34:48;;;;;;;10.30;4.00;;;;;;;;;;5103138;27;20256;-81
2021/03/22 11:37:20;;;;;;;11.40;3.90;;;;;;;;;;5101245;27;20221;-81
2021/03/22 11:39:56;;;;;;;15.80;5.07;;;;;;;;;;5106393;27;20237;-82
2021/03/22 11:42:31;;;;;;;15.60;4.53;;;;;;;;;;5095501;27;20603;-80
2021/03/22 11:44:59;;;;;;;12.10;4.80;;;;;;;;;;5093535;28;20597;-81
2021/03/22 11:47:39;;;;;;;12.73;5.30;;;;;;;;;;5095996;27;20225;-81
2021/03/22 11:50:36;;;;;;;15.03;4.73;;;;;;;;;;5027381;28;20232;-81
2021/03/22 11:53:21;;;;;;;20.97;5.03;;;;;;;;;;4994845;28;20666;-83
2021/03/22 11:55:50;;;;;;;17.00;4.30;;;;;;;;;;4889804;28;20854;-87
2021/03/22 11:58:36;;;;;;;12.93;4.20;;;;;;;;;;4895066;28;21339;-83
2021/03/22 12:01:21;;;;;;;11.00;4.73;;;;;;;;;;4909338;28;20260;-83
2021/03/22 12:04:15;;;;;;;17.90;4.70;;;;;;;;;;4895437;28;21491;-84
2021/03/22 12:06:58;;;;;;;11.30;4.10;;;;;;;;;;4889876;27;20371;-84
2021/03/22 12:09:27;;;;;;;14.53;4.60;;;;;;;;;;4889900;27;20235;-83
2021/03/22 12:11:56;;;;;;;10.63;5.10;;;;;;;;;;4887536;27;22723;-84
2021/03/22 12:14:25;;;;;;;9.47;4.33;;;;;;;;;;4876576;27;20386;-83
2021/03/22 12:17:01;;;;;;;17.63;5.13;;;;;;;;;;4895318;27;21736;-85
2021/03/22 12:19:35;;;;;;;17.33;4.53;;;;;;;;;;4914836;27;21630;-84
2021/03/22 12:22:04;;;;;;;13.60;4.37;;;;;;;;;;4911316;28;20221;-83
2021/03/22 12:24:37;;;;;;;14.40;4.17;;;;;;;;;;4900805;27;21543;-85
2021/03/22 12:27:10;;;;;;;10.27;4.40;;;;;;;;;;4902612;27;20241;-83
2021/03/22 12:29:41;;;;;;;11.53;4.17;;;;;;;;;;4903888;27;20446;-86
2021/03/22 12:32:14;;;;;;;10.67;4.43;;;;;;;;;;4902946;27;20391;-83
2021/03/22 12:34:43;;;;;;;14.93;4.60;;;;;;;;;;4891973;27;21185;-80
2021/03/22 12:37:22;;;;;;;16.83;5.07;;;;;;;;;;4914670;27;20237;-82
2021/03/22 12:39:53;;;;;;;13.47;4.57;;;;;;;;;;4913083;27;20581;-82
2021/03/22 12:42:23;;;;;;;11.67;4.27;;;;;;;;;;4913708;27;20348;-81
2021/03/22 12:44:51;;;;;;;10.83;3.60;;;;;;;;;;4895450;27;20719;-82
2021/03/22 12:47:20;;;;;;;10.93;4.50;;;;;;;;;;4903976;28;20236;-84
2021/03/22 12:49:48;;;;;;;11.23;4.27;;;;;;;;;;4909859;27;21604;-82
2021/03/22 12:52:16;;;;;;;13.73;4.40;;;;;;;;;;4893179;28;21067;-85
2021/03/22 12:54:55;;;;;;;9.97;3.70;;;;;;;;;;4905732;27;20707;-83
2021/03/22 12:57:26;;;;;;;9.77;3.73;;;;;;;;;;4903292;27;24924;-84
2021/03/22 12:59:56;;;;;;;11.03;3.83;;;;;;;;;;4887247;28;20227;-82
2021/03/22 13:02:25;;;;;;;12.70;4.07;;;;;;;;;;4864651;28;20261;-83
2021/03/22 13:04:53;;;;;;;9.03;4.00;;;;;;;;;;4869008;27;21035;-82
2021/03/22 13:07:21;;;;;;;14.27;4.07;;;;;;;;;;4877554;28;20994;-84
2021/03/22 13:09:49;;;;;;;12.13;4.03;;;;;;;;;;4906029;27;20352;-84
2021/03/22 13:12:21;;;;;;;14.87;3.80;;;;;;;;;;4893871;27;21119;-83
2021/03/22 13:14:50;;;;;;;14.03;4.43;;;;;;;;;;4888243;27;21102;-82
2021/03/22 13:17:18;;;;;;;12.67;3.83;;;;;;;;;;4881356;27;21260;-84
2021/03/22 13:19:47;;;;;;;14.10;4.90;;;;;;;;;;4888898;28;20769;-84
2021/03/22 13:22:20;;;;;;;8.70;3.67;;;;;;;;;;4907189;28;20500;-81
2021/03/22 13:24:58;;;;;;;11.27;3.80;;;;;;;;;;4873863;28;20320;-84
2021/03/22 13:27:26;;;;;;;11.90;4.20;;;;;;;;;;4880797;28;20228;-85
2021/03/22 13:29:58;;;;;;;10.37;3.63;;;;;;;;;;4870281;28;25445;-87
2021/03/22 13:32:26;;;;;;;12.93;4.07;;;;;;;;;;4861011;28;20835;-83
2021/03/22 13:34:54;;;;;;;10.50;3.83;;;;;;;;;;4880762;28;20325;-83
2021/03/22 13:37:24;;;;;;;8.97;3.40;;;;;;;;;;4875237;28;21686;-80
2021/03/22 13:39:53;;;;;;;9.87;3.47;;;;;;;;;;4882669;28;20871;-83
2021/03/22 13:42:21;;;;;;;12.90;4.53;;;;;;;;;;4897477;27;20222;-81
2021/03/22 13:44:49;;;;;;;10.57;3.90;;;;;;;;;;4884928;27;21182;-83
2021/03/22 13:47:18;;;;;;;9.10;3.63;;;;;;;;;;4895844;27;20225;-82
2021/03/22 13:49:46;;;;;;;11.30;3.67;;;;;;;;;;4895854;27;21139;-83
2021/03/22 13:52:17;;;;;;;14.00;3.70;;;;;;;;;;4897457;27;23570;-80
2021/03/22 13:54:45;;;;;;;10.07;3.87;;;;;;;;;;4903319;27;21195;-83
2021/03/22 13:57:13;;;;;;;10.07;3.13;;;;;;;;;;4909847;27;21197;-83
2021/03/22 13:59:41;;;;;;;11.00;3.70;;;;;;;;;;4887047;27;20356;-83
2021/03/22 14:02:11;;;;;;;7.30;3.07;;;;;;;;;;4922902;27;21027;-81
2021/03/22 14:04:41;;;;;;;10.70;3.63;;;;;;;;;;4937902;27;20225;-83
2021/03/22 14:07:09;;;;;;;11.23;3.73;;;;;;;;;;4934976;28;20494;-82
2021/03/22 14:09:38;;;;;;;10.60;3.80;;;;;;;;;;4937534;27;21124;-84
2021/03/22 14:12:07;;;;;;;8.57;3.60;;;;;;;;;;4917859;27;21646;-81
2021/03/22 14:14:48;;;;;;;16.10;4.27;;;;;;;;;;4906138;27;20268;-85
2021/03/22 14:17:16;;;;;;;11.33;3.43;;;;;;;;;;4895871;28;21784;-81
2021/03/22 14:19:45;;;;;;;11.53;4.83;;;;;;;;;;4886213;27;20518;-82
2021/03/22 14:22:13;;;;;;;10.13;3.17;;;;;;;;;;4926274;27;20727;-83
2021/03/22 14:24:40;;;;;;;8.70;3.13;;;;;;;;;;4942380;27;20933;-83
2021/03/22 14:27:09;;;;;;;19.53;5.40;;;;;;;;;;4945188;27;20778;-81
2021/03/22 14:29:38;;;;;;;16.17;4.87;;;;;;;;;;4938186;27;20628;-81
2021/03/22 14:32:07;;;;;;;12.70;3.10;;;;;;;;;;4944006;28;22404;-86
2021/03/22 14:34:35;;;;;;;9.93;3.40;;;;;;;;;;4963230;27;20229;-81
2021/03/22 14:37:04;;;;;;;11.03;2.97;;;;;;;;;;4966464;27;20237;-82
2021/03/22 14:39:32;;;;;;;13.20;3.73;;;;;;;;;;4971283;27;20363;-84
2021/03/22 14:42:00;;;;;;;19.73;4.17;;;;;;;;;;4950485;28;20261;-83
2021/03/22 14:44:28;;;;;;;11.00;4.63;;;;;;;;;;4974099;28;20782;-81
2021/03/22 14:46:57;;;;;;;12.13;3.93;;;;;;;;;;4970079;27;20927;-83
2021/03/22 14:49:25;;;;;;;11.33;3.90;;;;;;;;;;4957200;27;20264;-82
2021/03/22 14:51:52;;;;;;;15.70;3.93;;;;;;;;;;4956165;27;20229;-85
2021/03/22 14:54:21;;;;;;;15.23;4.10;;;;;;;;;;4977014;27;20228;-83
2021/03/22 14:56:48;;;;;;;13.57;3.77;;;;;;;;;;4928106;28;20276;-84
2021/03/22 14:59:16;;;;;;;11.20;3.90;;;;;;;;;;4909691;28;20914;-81
2021/03/22 15:01:44;;;;;;;11.87;3.53;;;;;;;;;;4917502;27;24145;-85
2021/03/22 15:04:12;;;;;;;15.83;3.63;;;;;;;;;;4907016;28;21536;-81
2021/03/22 15:06:40;;;;;;;14.67;3.80;;;;;;;;;;4907229;27;20244;-82
2021/03/22 15:09:09;;;;;;;11.77;3.57;;;;;;;;;;4936135;28;20300;-84
2021/03/22 15:11:40;;;;;;;15.27;3.83;;;;;;;;;;4944625;28;20277;-80
2021/03/22 15:14:07;;;;;;;14.27;4.03;;;;;;;;;;5088837;27;20224;-81